createdAt,value
2022-12-05T00:00:37.848Z,3.67
2022-12-05T00:03:05.777Z,3.67
2022-12-05T00:05:32.296Z,3.67
2022-12-05T00:07:58.890Z,3.72
2022-12-05T00:10:25.440Z,3.69
2022-12-05T00:12:51.967Z,3.67
2022-12-05T00:15:18.493Z,3.65
2022-12-05T00:17:45.034Z,3.62
2022-12-05T00:20:11.797Z,3.62
2022-12-05T00:22:39.193Z,3.61
2022-12-05T00:25:06.907Z,3.62
2022-12-05T00:27:34.101Z,3.60
2022-12-05T00:30:01.149Z,3.55
2022-12-05T00:32:30.842Z,3.57
2022-12-05T00:34:57.551Z,3.57
2022-12-05T00:37:24.536Z,3.60
2022-12-05T00:39:51.393Z,3.58
2022-12-05T00:42:17.970Z,3.58
2022-12-05T00:44:44.493Z,3.56
2022-12-05T00:47:11.053Z,3.56
2022-12-05T00:49:37.559Z,3.56
2022-12-05T00:52:04.158Z,3.53
2022-12-05T00:54:30.783Z,3.59
2022-12-05T00:56:57.527Z,3.60
2022-12-05T00:59:24.103Z,3.63
2022-12-05T01:01:51.681Z,3.58
2022-12-05T01:04:21.688Z,3.57
2022-12-05T01:06:49.022Z,3.56
2022-12-05T01:09:18.831Z,3.58
2022-12-05T01:11:45.970Z,3.60
2022-12-05T01:14:14.115Z,3.59
2022-12-05T01:16:43.558Z,3.59
2022-12-05T01:19:20.089Z,3.57
2022-12-05T01:21:47.879Z,3.59
2022-12-05T01:24:15.514Z,3.58
2022-12-05T01:26:42.722Z,3.61
2022-12-05T01:29:10.533Z,3.61
2022-12-05T01:31:37.733Z,3.60
2022-12-05T01:34:07.304Z,3.58
2022-12-05T01:36:34.327Z,3.61
2022-12-05T01:39:01.148Z,3.60
2022-12-05T01:41:31.570Z,3.62
2022-12-05T01:44:06.005Z,3.59
2022-12-05T01:46:37.981Z,3.58
2022-12-05T01:49:10.121Z,3.62
2022-12-05T01:51:40.562Z,3.66
2022-12-05T01:54:09.243Z,3.64
2022-12-05T01:56:36.810Z,3.67
2022-12-05T01:59:06.329Z,3.65
2022-12-05T02:01:33.876Z,3.65
2022-12-05T02:04:00.758Z,3.69
2022-12-05T02:06:28.344Z,3.68
2022-12-05T02:08:55.408Z,3.67
2022-12-05T02:11:24.848Z,3.66
2022-12-05T02:14:00.397Z,3.66
2022-12-05T02:16:51.581Z,3.69
2022-12-05T02:19:45.853Z,3.68
2022-12-05T02:22:31.206Z,3.71
2022-12-05T02:25:22.760Z,3.71
2022-12-05T02:28:01.233Z,3.72
2022-12-05T02:30:37.729Z,3.72
2022-12-05T02:33:20.011Z,3.71
2022-12-05T02:35:58.646Z,3.72
2022-12-05T02:38:31.351Z,3.69
2022-12-05T02:41:20.060Z,3.74
2022-12-05T02:43:57.302Z,3.74
2022-12-05T02:46:27.315Z,3.73
2022-12-05T02:49:08.471Z,3.73
2022-12-05T02:51:47.039Z,3.73
2022-12-05T02:54:21.723Z,3.74
2022-12-05T02:56:49.636Z,3.74
2022-12-05T02:59:22.881Z,3.75
2022-12-05T03:01:50.721Z,3.76
2022-12-05T03:04:20.209Z,3.78
2022-12-05T03:06:54.457Z,3.77
2022-12-05T03:09:38.941Z,3.78
2022-12-05T03:12:05.376Z,3.77
2022-12-05T03:14:37.568Z,3.78
2022-12-05T03:17:10.427Z,3.81
2022-12-05T03:19:55.817Z,3.85
2022-12-05T03:22:31.892Z,3.83
2022-12-05T03:25:00.013Z,3.84
2022-12-05T03:27:47.987Z,3.86
2022-12-05T03:30:18.165Z,3.87
2022-12-05T03:33:10.850Z,3.86
2022-12-05T03:36:06.430Z,3.87
2022-12-05T03:38:57.257Z,3.87
2022-12-05T03:41:35.968Z,3.89
2022-12-05T03:44:33.267Z,3.89
2022-12-05T03:47:33.751Z,3.90
2022-12-05T03:50:05.520Z,3.95
2022-12-05T03:52:57.158Z,3.98
2022-12-05T03:55:29.751Z,3.99
2022-12-05T03:58:01.809Z,4.01
2022-12-05T04:00:32.342Z,4.02
2022-12-05T04:03:02.800Z,4.02
2022-12-05T04:05:42.088Z,4.01
2022-12-05T04:08:17.603Z,4.04
2022-12-05T04:10:48.899Z,4.05
2022-12-05T04:13:25.173Z,4.06
2022-12-05T04:16:17.861Z,4.07
2022-12-05T04:18:57.140Z,4.07
2022-12-05T04:21:38.400Z,4.09
2022-12-05T04:24:35.114Z,4.07
2022-12-05T04:27:31.874Z,4.10
2022-12-05T04:30:03.600Z,4.10
2022-12-05T04:32:41.584Z,4.04
2022-12-05T04:35:17.098Z,4.07
2022-12-05T04:37:48.616Z,4.07
2022-12-05T04:40:25.103Z,4.10
2022-12-05T04:42:54.639Z,4.07
2022-12-05T04:45:24.602Z,4.07
2022-12-05T04:47:57.308Z,4.07
2022-12-05T04:50:27.017Z,4.10
2022-12-05T04:52:56.918Z,4.09
2022-12-05T04:55:26.261Z,4.11
2022-12-05T04:57:55.786Z,4.16
2022-12-05T05:00:22.825Z,4.17
2022-12-05T05:03:00.668Z,4.15
2022-12-05T05:05:28.983Z,4.20
2022-12-05T05:07:55.746Z,4.22
2022-12-05T05:10:44.093Z,4.19
2022-12-05T05:13:10.667Z,4.17
2022-12-05T05:15:37.325Z,4.15
2022-12-05T05:18:04.162Z,4.15
2022-12-05T05:20:30.665Z,4.13
2022-12-05T05:22:58.220Z,4.15
2022-12-05T05:25:25.992Z,4.17
2022-12-05T05:27:55.596Z,4.15
2022-12-05T05:30:24.389Z,4.14
2022-12-05T05:32:52.486Z,4.11
2022-12-05T05:35:19.345Z,4.13
2022-12-05T05:37:46.264Z,4.14
2022-12-05T05:40:14.299Z,4.17
2022-12-05T05:42:49.187Z,4.15
2022-12-05T05:45:16.136Z,4.16
2022-12-05T05:47:43.296Z,4.20
2022-12-05T05:50:10.348Z,4.21
2022-12-05T05:53:02.859Z,4.23
2022-12-05T05:55:29.496Z,4.25
2022-12-05T05:57:56.046Z,4.26
2022-12-05T06:00:22.581Z,4.23
2022-12-05T06:02:49.190Z,4.26
2022-12-05T06:05:15.929Z,4.27
2022-12-05T06:07:42.586Z,4.29
2022-12-05T06:10:09.543Z,4.28
2022-12-05T06:12:36.099Z,4.22
2022-12-05T06:15:02.597Z,4.20
2022-12-05T06:17:30.052Z,4.21
2022-12-05T06:19:56.819Z,4.17
2022-12-05T06:22:23.664Z,4.20
2022-12-05T06:24:50.386Z,4.20
2022-12-05T06:27:16.908Z,4.13
2022-12-05T06:29:43.667Z,4.16
2022-12-05T06:32:10.244Z,4.10
2022-12-05T06:34:37.107Z,4.12
2022-12-05T06:37:04.157Z,4.11
2022-12-05T06:39:30.667Z,4.13
2022-12-05T06:41:57.472Z,4.11
2022-12-05T06:44:26.944Z,4.10
2022-12-05T06:46:54.418Z,4.10
2022-12-05T06:49:25.213Z,4.07
2022-12-05T06:51:55.895Z,4.03
2022-12-05T06:54:22.368Z,4.03
2022-12-05T06:56:48.942Z,4.03
2022-12-05T06:59:15.622Z,4.03
2022-12-05T07:01:42.998Z,4.02
2022-12-05T07:04:20.243Z,4.00
2022-12-05T07:06:50.992Z,3.98
2022-12-05T07:09:20.087Z,3.98
2022-12-05T07:11:48.231Z,3.95
2022-12-05T07:14:31.222Z,3.94
2022-12-05T07:17:01.262Z,3.97
2022-12-05T07:19:27.770Z,3.93
2022-12-05T07:21:54.261Z,3.95
2022-12-05T07:24:20.819Z,3.97
2022-12-05T07:26:47.414Z,3.90
2022-12-05T07:29:13.996Z,3.90
2022-12-05T07:31:40.532Z,3.85
2022-12-05T07:34:07.236Z,3.82
2022-12-05T07:36:34.526Z,3.78
2022-12-05T07:39:01.299Z,3.76
2022-12-05T07:41:30.433Z,3.72
2022-12-05T07:43:58.278Z,3.68
2022-12-05T07:46:26.489Z,3.67
2022-12-05T07:48:53.688Z,3.64
2022-12-05T07:51:20.988Z,3.67
2022-12-05T07:53:48.472Z,3.64
2022-12-05T07:56:17.118Z,3.59
2022-12-05T07:58:45.445Z,3.57
2022-12-05T08:01:15.435Z,3.58
2022-12-05T08:03:42.260Z,3.59
2022-12-05T08:06:11.306Z,3.59
2022-12-05T08:08:38.091Z,3.55
2022-12-05T08:11:10.601Z,3.58
2022-12-05T08:13:37.807Z,3.57
2022-12-05T08:16:06.473Z,3.58
2022-12-05T08:18:33.402Z,3.53
2022-12-05T08:21:05.101Z,3.56
2022-12-05T08:23:32.999Z,3.55
2022-12-05T08:26:16.826Z,3.53
2022-12-05T08:28:44.318Z,3.43
2022-12-05T08:31:16.480Z,3.41
2022-12-05T08:33:43.626Z,3.40
2022-12-05T08:36:13.024Z,3.40
2022-12-05T08:38:39.583Z,3.37
2022-12-05T08:41:12.581Z,3.37
2022-12-05T08:43:39.433Z,3.35
2022-12-05T08:46:06.593Z,3.32
2022-12-05T08:48:34.177Z,3.35
2022-12-05T08:51:06.211Z,3.33
2022-12-05T08:53:32.805Z,3.31
2022-12-05T08:56:04.080Z,3.34
2022-12-05T08:58:30.885Z,3.32
2022-12-05T09:01:08.071Z,3.32
2022-12-05T09:03:35.210Z,3.34
2022-12-05T09:06:07.841Z,3.36
2022-12-05T09:08:34.660Z,3.38
2022-12-05T09:11:17.861Z,3.37
2022-12-05T09:13:45.122Z,3.29
2022-12-05T09:16:14.589Z,3.28
2022-12-05T09:18:41.251Z,3.27
2022-12-05T09:21:13.244Z,3.24
2022-12-05T09:23:40.310Z,3.23
2022-12-05T09:26:08.616Z,3.24
2022-12-05T09:28:35.545Z,3.25
2022-12-05T09:31:04.495Z,3.28
2022-12-05T09:33:33.261Z,3.26
2022-12-05T09:36:13.191Z,3.27
2022-12-05T09:38:40.414Z,3.29
2022-12-05T09:41:21.808Z,3.29
2022-12-05T09:44:03.940Z,3.29
2022-12-05T09:46:52.190Z,3.27
2022-12-05T09:49:19.363Z,3.17
2022-12-05T09:51:52.253Z,3.08
2022-12-05T09:54:22.861Z,3.06
2022-12-05T09:56:51.687Z,3.06
2022-12-05T09:59:20.680Z,3.04
2022-12-05T10:02:04.260Z,3.03
2022-12-05T10:04:47.069Z,2.99
2022-12-05T10:07:34.467Z,2.94
2022-12-05T10:10:27.967Z,2.94
2022-12-05T10:13:32.684Z,2.86
2022-12-05T10:16:03.358Z,2.87
2022-12-05T10:18:44.792Z,2.86
2022-12-05T10:21:53.519Z,2.90
2022-12-05T10:24:38.814Z,2.90
2022-12-05T10:27:14.124Z,2.90
2022-12-05T10:29:47.883Z,2.91
2022-12-05T10:32:31.187Z,2.94
2022-12-05T10:35:14.223Z,2.89
2022-12-05T10:37:46.304Z,2.87
2022-12-05T10:40:13.979Z,2.87
2022-12-05T10:42:40.778Z,2.84
2022-12-05T10:45:14.363Z,2.79
2022-12-05T10:47:40.960Z,2.77
2022-12-05T10:50:21.832Z,2.78
2022-12-05T10:52:48.784Z,2.82
2022-12-05T10:55:18.175Z,2.82
2022-12-05T10:57:51.922Z,2.81
2022-12-05T11:00:23.149Z,2.83
2022-12-05T11:02:50.313Z,2.84
2022-12-05T11:05:27.953Z,2.82
2022-12-05T11:07:56.527Z,2.83
2022-12-05T11:10:38.922Z,2.84
2022-12-05T11:13:24.497Z,2.83
2022-12-05T11:15:55.517Z,2.84
2022-12-05T11:18:25.069Z,2.84
2022-12-05T11:20:52.305Z,2.85
2022-12-05T11:23:30.789Z,2.88
2022-12-05T11:25:58.450Z,2.84
2022-12-05T11:28:32.157Z,2.83
2022-12-05T11:31:17.055Z,2.78
2022-12-05T11:33:43.743Z,2.75
2022-12-05T11:36:19.534Z,2.74
2022-12-05T11:38:46.783Z,2.75
2022-12-05T11:41:35.141Z,2.76
2022-12-05T11:44:39.233Z,2.73
2022-12-05T11:47:27.282Z,2.74
2022-12-05T11:50:35.338Z,2.77
2022-12-05T11:53:29.769Z,2.80
2022-12-05T11:56:32.052Z,2.79
2022-12-05T11:59:13.523Z,2.83
2022-12-05T12:01:52.052Z,2.83
2022-12-05T12:04:37.142Z,2.79
2022-12-05T12:07:36.031Z,2.80
2022-12-05T12:10:14.551Z,2.79
2022-12-05T12:13:03.826Z,2.78
2022-12-05T12:15:44.775Z,2.82
2022-12-05T12:18:40.618Z,2.83
2022-12-05T12:21:38.778Z,2.86
2022-12-05T12:24:27.500Z,2.88
2022-12-05T12:27:18.684Z,2.89
2022-12-05T12:30:12.363Z,2.90
2022-12-05T12:32:53.726Z,2.90
2022-12-05T12:35:59.715Z,2.90
2022-12-05T12:38:51.015Z,2.88
2022-12-05T12:41:39.748Z,2.88
2022-12-05T12:44:12.207Z,2.87
2022-12-05T12:46:46.165Z,2.91
2022-12-05T12:49:30.772Z,2.93
2022-12-05T12:52:10.762Z,2.93
2022-12-05T12:55:03.950Z,2.92
2022-12-05T12:57:57.724Z,2.89
2022-12-05T13:00:45.973Z,2.81
2022-12-05T13:03:17.192Z,2.80
2022-12-05T13:05:53.269Z,2.80
2022-12-05T13:08:36.631Z,2.82
2022-12-05T13:11:08.381Z,2.78
2022-12-05T13:13:40.262Z,2.78
2022-12-05T13:16:08.390Z,2.75
2022-12-05T13:18:35.847Z,2.77
2022-12-05T13:21:08.034Z,2.80
2022-12-05T13:23:41.583Z,2.81
2022-12-05T13:26:11.130Z,2.77
2022-12-05T13:28:47.619Z,2.76
2022-12-05T13:31:17.060Z,2.76
2022-12-05T13:33:49.493Z,2.78
2022-12-05T13:36:38.349Z,2.76
2022-12-05T13:39:39.268Z,2.75
2022-12-05T13:42:18.864Z,2.74
2022-12-05T13:44:55.705Z,2.77
2022-12-05T13:47:22.163Z,2.76
2022-12-05T13:49:56.114Z,2.74
2022-12-05T13:52:27.294Z,2.75
2022-12-05T13:54:59.652Z,2.76
2022-12-05T13:57:38.036Z,2.76
2022-12-05T14:00:21.711Z,2.76
2022-12-05T14:02:51.247Z,2.76
2022-12-05T14:05:20.678Z,2.76
2022-12-05T14:08:02.378Z,2.73
2022-12-05T14:10:35.953Z,2.73
2022-12-05T14:13:14.889Z,2.72
2022-12-05T14:15:43.509Z,2.75
2022-12-05T14:18:23.347Z,2.74
2022-12-05T14:21:08.255Z,2.72
2022-12-05T14:23:55.551Z,2.71
2022-12-05T14:26:43.056Z,2.71
2022-12-05T14:29:25.346Z,2.74
2022-12-05T14:32:10.150Z,2.74
2022-12-05T14:34:47.495Z,2.68
2022-12-05T14:37:16.817Z,2.66
2022-12-05T14:39:50.252Z,2.66
2022-12-05T14:42:23.091Z,2.67
2022-12-05T14:44:51.722Z,2.66
2022-12-05T14:47:22.713Z,2.65
2022-12-05T14:50:21.046Z,2.65
2022-12-05T14:53:25.985Z,2.72
2022-12-05T14:56:16.383Z,2.64
2022-12-05T14:59:04.523Z,2.60
2022-12-05T15:01:49.349Z,2.61
2022-12-05T15:04:17.426Z,2.58
2022-12-05T15:06:52.485Z,2.58
2022-12-05T15:09:56.140Z,2.55
2022-12-05T15:12:31.766Z,2.55
2022-12-05T15:15:08.204Z,2.58
2022-12-05T15:17:43.367Z,2.63
2022-12-05T15:20:34.358Z,2.63
2022-12-05T15:23:41.105Z,2.57
2022-12-05T15:26:45.392Z,2.56
2022-12-05T15:29:16.063Z,2.55
2022-12-05T15:31:48.644Z,2.53
2022-12-05T15:34:44.079Z,2.49
2022-12-05T15:37:30.676Z,2.50
2022-12-05T15:40:14.168Z,2.46
2022-12-05T15:42:40.792Z,2.44
2022-12-05T15:45:18.386Z,2.43
2022-12-05T15:48:09.409Z,2.39
2022-12-05T15:50:50.327Z,2.36
2022-12-05T15:53:44.717Z,2.34
2022-12-05T15:56:20.351Z,2.38
2022-12-05T15:58:50.719Z,2.39
2022-12-05T16:01:25.240Z,2.40
2022-12-05T16:04:29.186Z,2.40
2022-12-05T16:07:00.503Z,2.44
2022-12-05T16:09:31.910Z,2.43
2022-12-05T16:12:15.581Z,2.40
2022-12-05T16:15:00.075Z,2.41
2022-12-05T16:17:30.559Z,2.40
2022-12-05T16:20:25.175Z,2.38
2022-12-05T16:22:54.752Z,2.35
2022-12-05T16:25:33.854Z,2.34
2022-12-05T16:28:08.288Z,2.38
2022-12-05T16:30:36.304Z,2.36
2022-12-05T16:33:13.982Z,2.36
2022-12-05T16:35:43.414Z,2.36
2022-12-05T16:38:31.847Z,2.38
2022-12-05T16:41:04.259Z,2.53
2022-12-05T16:43:31.665Z,2.69
2022-12-05T16:46:20.526Z,2.73
2022-12-05T16:49:10.907Z,2.84
2022-12-05T16:51:58.765Z,2.92
2022-12-05T16:54:25.367Z,2.97
2022-12-05T16:56:52.180Z,2.91
2022-12-05T16:59:26.912Z,3.02
2022-12-05T17:01:53.576Z,3.13
2022-12-05T17:04:20.214Z,3.23
2022-12-05T17:06:47.024Z,3.32
2022-12-05T17:09:13.652Z,3.43
2022-12-05T17:11:43.055Z,3.52
2022-12-05T17:14:18.220Z,3.54
2022-12-05T17:16:45.343Z,3.62
2022-12-05T17:19:12.473Z,3.45
2022-12-05T17:21:42.163Z,3.34
2022-12-05T17:24:18.781Z,3.36
2022-12-05T17:26:46.381Z,3.23
2022-12-05T17:29:13.317Z,3.18
2022-12-05T17:31:39.880Z,3.11
2022-12-05T17:34:15.784Z,3.05
2022-12-05T17:36:42.986Z,3.21
2022-12-05T17:39:09.615Z,3.28
2022-12-05T17:41:36.963Z,3.32
2022-12-05T17:44:04.727Z,3.30
2022-12-05T17:46:31.575Z,3.38
2022-12-05T17:48:58.204Z,3.35
2022-12-05T17:51:24.930Z,3.40
2022-12-05T17:53:53.045Z,3.30
2022-12-05T17:56:19.737Z,3.28
2022-12-05T17:58:46.768Z,3.24
2022-12-05T18:01:16.811Z,3.23
2022-12-05T18:03:43.629Z,3.23
2022-12-05T18:06:10.276Z,3.19
2022-12-05T18:08:39.785Z,3.23
2022-12-05T18:11:06.753Z,3.29
2022-12-05T18:13:34.022Z,3.36
2022-12-05T18:16:01.396Z,3.42
2022-12-05T18:18:29.460Z,3.48
2022-12-05T18:21:05.780Z,3.51
2022-12-05T18:23:32.318Z,3.52
2022-12-05T18:26:00.377Z,3.57
2022-12-05T18:28:27.564Z,3.57
2022-12-05T18:31:15.661Z,3.49
2022-12-05T18:33:46.642Z,3.42
2022-12-05T18:36:21.023Z,3.40
2022-12-05T18:38:55.177Z,3.35
2022-12-05T18:41:23.724Z,3.37
2022-12-05T18:43:51.173Z,3.39
2022-12-05T18:46:17.834Z,3.41
2022-12-05T18:48:47.895Z,3.36
2022-12-05T18:51:21.290Z,3.26
2022-12-05T18:53:53.266Z,3.23
2022-12-05T18:56:26.474Z,3.25
2022-12-05T18:59:14.934Z,3.31
2022-12-05T19:01:42.248Z,3.25
2022-12-05T19:04:12.640Z,3.21
2022-12-05T19:06:41.536Z,3.24
2022-12-05T19:09:12.346Z,3.29
2022-12-05T19:11:47.315Z,3.34
2022-12-05T19:14:14.961Z,3.25
2022-12-05T19:16:41.611Z,3.17
2022-12-05T19:19:09.160Z,3.19
2022-12-05T19:21:37.225Z,3.19
2022-12-05T19:24:05.291Z,3.21
2022-12-05T19:26:32.529Z,3.18
2022-12-05T19:28:59.487Z,3.13
2022-12-05T19:31:27.837Z,3.08
2022-12-05T19:33:56.754Z,3.07
2022-12-05T19:36:27.604Z,3.06
2022-12-05T19:38:55.790Z,3.17
2022-12-05T19:41:25.382Z,3.13
2022-12-05T19:43:52.221Z,3.13
2022-12-05T19:46:24.876Z,3.13
2022-12-05T19:48:53.219Z,3.13
2022-12-05T19:51:20.081Z,3.07
2022-12-05T19:53:47.718Z,3.03
2022-12-05T19:56:22.914Z,3.07
2022-12-05T19:58:51.302Z,3.12
2022-12-05T20:01:21.301Z,3.17
2022-12-05T20:03:50.326Z,3.09
2022-12-05T20:06:18.285Z,3.09
2022-12-05T20:08:46.186Z,3.05
2022-12-05T20:11:19.953Z,3.06
2022-12-05T20:13:48.275Z,3.06
2022-12-05T20:16:19.110Z,3.10
2022-12-05T20:18:46.692Z,3.11
2022-12-05T20:21:16.209Z,3.15
2022-12-05T20:23:45.014Z,3.16
2022-12-05T20:26:13.738Z,3.21
2022-12-05T20:28:41.281Z,3.24
2022-12-05T20:31:11.236Z,3.20
2022-12-05T20:33:38.529Z,3.20
2022-12-05T20:36:17.404Z,3.17
2022-12-05T20:38:45.283Z,3.17
2022-12-05T20:41:17.854Z,3.16
2022-12-05T20:43:49.420Z,3.18
2022-12-05T20:46:19.400Z,3.15
2022-12-05T20:48:48.048Z,3.12
2022-12-05T20:51:22.731Z,3.09
2022-12-05T20:53:49.750Z,3.10
2022-12-05T20:56:19.676Z,3.12
2022-12-05T20:58:48.980Z,3.11
2022-12-05T21:01:17.362Z,3.11
2022-12-05T21:03:46.613Z,3.11
2022-12-05T21:06:23.417Z,3.13
2022-12-05T21:08:52.156Z,3.09
2022-12-05T21:11:19.528Z,3.09
2022-12-05T21:13:46.198Z,3.12
2022-12-05T21:16:18.497Z,3.07
2022-12-05T21:18:45.433Z,3.07
2022-12-05T21:21:15.738Z,3.10
2022-12-05T21:23:43.679Z,3.13
2022-12-05T21:26:14.643Z,3.16
2022-12-05T21:28:42.244Z,3.17
2022-12-05T21:31:11.789Z,3.11
2022-12-05T21:33:39.995Z,3.09
2022-12-05T21:36:07.298Z,3.09
2022-12-05T21:38:34.199Z,3.07
2022-12-05T21:41:03.247Z,3.12
2022-12-05T21:43:29.945Z,3.13
2022-12-05T21:45:56.849Z,3.12
2022-12-05T21:48:24.778Z,3.15
2022-12-05T21:50:52.336Z,3.16
2022-12-05T21:53:20.006Z,3.16
2022-12-05T21:55:47.095Z,3.11
2022-12-05T21:58:14.218Z,3.09
2022-12-05T22:00:40.852Z,3.12
2022-12-05T22:03:07.754Z,3.13
2022-12-05T22:05:34.354Z,3.10
2022-12-05T22:08:04.976Z,3.10
2022-12-05T22:10:36.290Z,3.11
2022-12-05T22:13:03.001Z,3.10
2022-12-05T22:15:29.567Z,3.08
2022-12-05T22:17:56.654Z,3.04
2022-12-05T22:20:24.285Z,2.99
2022-12-05T22:22:51.349Z,3.03
2022-12-05T22:25:17.943Z,3.08
2022-12-05T22:27:44.883Z,3.12
2022-12-05T22:30:11.722Z,3.06
2022-12-05T22:32:38.239Z,3.03
2022-12-05T22:35:05.076Z,3.00
2022-12-05T22:37:31.837Z,2.99
2022-12-05T22:39:58.901Z,3.01
2022-12-05T22:42:28.651Z,3.04
2022-12-05T22:44:55.173Z,3.06
2022-12-05T22:47:21.733Z,3.06
2022-12-05T22:49:48.242Z,3.08
2022-12-05T22:52:15.371Z,3.07
2022-12-05T22:54:42.004Z,3.05
2022-12-05T22:57:08.623Z,3.06
2022-12-05T22:59:35.198Z,3.06
2022-12-05T23:02:01.678Z,3.07
2022-12-05T23:04:28.309Z,3.07
2022-12-05T23:06:54.868Z,3.07
2022-12-05T23:09:21.425Z,3.08
2022-12-05T23:11:50.547Z,3.07
2022-12-05T23:14:17.180Z,3.09
2022-12-05T23:16:43.754Z,3.09
2022-12-05T23:19:10.324Z,3.09
2022-12-05T23:21:40.467Z,3.09
2022-12-05T23:24:12.452Z,3.11
2022-12-05T23:26:45.381Z,3.16
2022-12-05T23:29:13.152Z,3.16
2022-12-05T23:31:40.717Z,3.16
2022-12-05T23:34:07.670Z,3.21
2022-12-05T23:36:35.091Z,3.24
2022-12-05T23:39:02.081Z,3.24
2022-12-05T23:41:28.754Z,3.22
2022-12-05T23:43:55.556Z,3.20
2022-12-05T23:46:24.700Z,3.22
2022-12-05T23:48:52.040Z,3.29
2022-12-05T23:51:25.713Z,3.25
2022-12-05T23:53:54.889Z,3.25
2022-12-05T23:56:24.600Z,3.28
2022-12-05T23:58:51.397Z,3.31
